Tiempo atmosférico en la estación meteorológica de Andorra, Teruel (762 m.)



Fecha
DESCASC
Temp. máxima en grados centígrados (hora)
DESCASC
Temp. mínima en grados centígrados (hora)
DESCASC
Temp. media en grados centígrados
DESCASC
Racha de viento máxima en m/sg (hora)
DESCASC
Velocidad máxima media en intervalos de 10 minutos(hora)
DESCASC
Precipitaciones diarias en mm
DESCASC
Precipitaciones de 00:00 a 06:00 en mm
DESCASC
Precipitaciones de 06:00 a 12:00 en mm
DESCASC
Precipitaciones de 12:00 a 18:00 en mm
DESCASC
Precipitaciones de 18:00 a 24:00 en mm
DESCASC
19-04-2018 18.8 (14:40) 12 (05:10) 15.4 13.33 (16:50) 8.61 (15:10) 0 0 0 0 0
18-04-2018 21.9 (16:00) 9.9 (06:40) 15.9 14.44 (18:40) 11.11 (18:40) 0 0 0 0 0
17-04-2018 18.4 (14:50) 6.6 (04:10) 12.5 8.33 (15:40) 5.28 (15:40) 0 0 0 0 0
16-04-2018 13.7 (00:00) 7.6 (06:40) 10.6 16.94 (06:10) 13.33 (06:10) 6 0.2 5.8 0 0
15-04-2018 18.6 (15:30) 5.5 (00:00) 12.1 11.94 (12:40) 8.61 (12:00) 0.4 0 0 0 0.4
14-04-2018 13.7 (15:20) 4.1 (00:00) 8.9 7.22 (15:30) 5.28 (09:30) 0 0 0 0 0
13-04-2018 14.2 (13:50) 6.1 (00:00) 10.1 10.56 (16:00) 6.67 (10:20) 3.4 0.6 0 2.8 0
12-04-2018 14.3 (17:10) 1.6 (00:00) 8 15.56 (14:00) 11.67 (09:30) 0 0 0 0 0
11-04-2018 5.9 (00:00) -0.1 (00:00) 2.9 15.56 (06:00) 12.5 (06:20) 21 11.4 4.2 1 4.4
10-04-2018 10.2 (10:50) 3.8 (00:00) 7 13.33 (02:00) 10.28 (02:00) 1 0.2 0 0 0.8
09-04-2018 12.7 (12:10) 4.8 (00:00) 8.8 18.06 (18:10) 12.5 (18:10) 1.2 0 0 0.6 0.6
08-04-2018 11.3 (13:30) 4.7 (00:00) 8 15 (03:20) 11.39 (03:20) 16.2 12.2 0.6 3.4 0
07-04-2018 15.4 (15:20) 7.2 (00:00) 11.3 12.22 (15:30) 7.78 (15:40) 4.2 0 0 0 4.2
06-04-2018 20 (15:00) 8 (00:00) 14 13.61 (22:20) 10.28 (15:30) 0 0 0 0 0
05-04-2018 17.4 (15:00) 5.9 (00:00) 11.6 17.5 (01:30) 13.33 (01:10) 0 0 0 0 0
04-04-2018 16.7 (17:10) 8.6 (00:00) 12.7 25.28 (21:20) 17.22 (21:30) 0 0 0 0 0
03-04-2018 21.2 (17:20) 10.8 (00:00) 16 14.72 (13:00) 11.11 (15:00) 0 0 0 0 0
02-04-2018 19.3 (16:40) 8.6 (00:00) 13.9 10.83 (17:20) 8.33 (17:30) 0 0 0 0 0
01-04-2018 17.1 (13:50) 1.9 (00:00) 9.5 10.28 (18:40) 8.33 (18:40) 0 0 0 0 0
31-03-2018 12.7 (16:10) 4.1 (00:00) 8.4 26.39 (10:40) 19.72 (07:00) 0 0 0 0 0
30-03-2018 14 (16:50) 5 (00:00) 9.5 15.83 (23:40) 12.5 (23:40) 0 0 0 0 0
29-03-2018 15.8 (13:30) 6 (00:00) 10.9 11.94 (02:40) 9.44 (02:30) 0 0 0 0 0
28-03-2018 23.3 (16:20) 8.1 (00:00) 15.7 15.28 (11:50) 12.22 (11:50) 0 0 0 0 0
27-03-2018 17.8 (17:40) 4.1 (00:00) 10.9 19.44 (11:50) 14.72 (16:00) 0 0 0 0 0
26-03-2018 11.7 (17:10) 3.9 (00:00) 7.8 20 (11:00) 14.17 (19:40) 0 0 0 0 0
25-03-2018 9.6 (13:50) 2.6 (00:00) 6.1 15.28 (05:50) 11.94 (03:20) 0 0 0 0 0
24-03-2018 9.7 (14:50) 2.1 (00:00) 5.9 24.17 (04:30) 19.72 (04:30) 1.2 1.2 0 0 0
23-03-2018 16 (15:50) 1.8 (00:00) 8.9 19.17 (09:50) 15.28 (09:50) 0 0 0 0 0
22-03-2018 10.2 (16:00) -0.9 (-00:0) 4.6 20.83 (03:40) 14.44 (15:20) 0 0 0 0 0

Gráficas

Temp. máximas Temp. mínimas Temp. medias Precipitaciones Rachas de viento máximas Velocidades máximas media en intervalos de 10 minutos

Datos horarios

Fecha y hora oficial Temperatura (ºC) Velocidad del viento (km/h) Dirección del viento Racha (km/h) Dirección de racha Precipitación (mm) Presión (hPa) Tendencia (hPa) Humedad (%)
2018-04-20 23:00:00 12.8 9 Sudeste 22 Sudeste 0 -- -- 67
2018-04-20 22:00:00 13.6 14 Sudeste 26 Sudeste 0 -- -- 63
2018-04-20 21:00:00 14.2 13 Este 28 Este 0 -- -- 61
2018-04-20 20:00:00 15.8 15 Este 32 Sudeste 0 -- -- 54
2018-04-20 19:00:00 17.2 17 Este 41 Este 0 -- -- 49
2018-04-20 18:00:00 17.7 26 Este 45 Este 0 -- -- 46
2018-04-20 17:00:00 18.3 32 Este 45 Este 0 -- -- 47
2018-04-20 16:00:00 18.3 33 Este 46 Este 0 -- -- 45
2018-04-20 15:00:00 18.2 30 Este 41 Este 0 -- -- 51
2018-04-20 14:00:00 18.3 26 Este 39 Este 0 -- -- 56
2018-04-20 13:00:00 17.4 24 Este 32 Nordeste 0 -- -- 59
2018-04-20 12:00:00 16.7 18 Este 27 Este 0 -- -- 60
2018-04-20 11:00:00 15.5 13 Este 22 Este 0 -- -- 64
2018-04-20 10:00:00 14.9 9 Este 13 Este 0 -- -- 65
2018-04-20 09:00:00 11.7 12 Sur 15 Sur 0 -- -- 74
2018-04-20 08:00:00 11.3 10 Sudeste 20 Este 0 -- -- 75
2018-04-20 07:00:00 10.8 10 Sudeste 22 Este 0 -- -- 77
2018-04-20 06:00:00 11.1 13 Este 18 Este 0 -- -- 75
2018-04-20 05:00:00 11.3 10 Este 15 Este 0 -- -- 75
2018-04-20 04:00:00 11.3 10 Este 17 Sur 0 -- -- 74
2018-04-20 03:00:00 11.7 16 Sur 19 Sur 0 -- -- 73
2018-04-20 02:00:00 11.5 8 Sur 13 Sur 0 -- -- 75
2018-04-20 01:00:00 12.4 9 Sur 19 Sudeste 0 -- -- 71
2018-04-20 00:00:00 13.1 14 Sudeste 24 Sudeste 0 -- -- 67
2018-04-19 23:00:00 12.7 9 Sur 22 Sur 0 -- -- 72
2018-04-19 22:00:00 14.2 14 Sudeste 25 Sudeste 0 -- -- 64
2018-04-19 21:00:00 14.5 14 Este 29 Este 0 -- -- 63
2018-04-19 20:00:00 16.6 22 Este 35 Este 0 -- -- 54
2018-04-19 19:00:00 17.3 22 Este 41 Este 0 -- -- 53
2018-04-19 18:00:00 17.9 21 Este 41 Este 0 -- -- 51
2018-04-19 17:00:00 17.8 30 Este 48 Este 0 -- -- 52
2018-04-19 16:00:00 18.4 20 Este 46 Este 0 -- -- 52
2018-04-19 15:00:00 18.3 21 Este 40 Este 0 -- -- 51
2018-04-19 14:00:00 17.8 23 Este 35 Este 0 -- -- 57
2018-04-19 13:00:00 17.5 27 Este 37 Nordeste 0 -- -- 56
2018-04-19 12:00:00 17.2 17 Este 27 Este 0 -- -- 57
2018-04-19 11:00:00 16.5 12 Nordeste 17 Este 0 -- -- 57
2018-04-19 10:00:00 15.2 12 Este 18 Este 0 -- -- 59
2018-04-19 09:00:00 14.5 13 Este 19 Este 0 -- -- 57
2018-04-19 08:00:00 13.7 15 Este 19 Este 0 -- -- 55
2018-04-19 07:00:00 12.6 10 Este 16 Este 0 -- -- 60
2018-04-19 06:00:00 13.6 14 Este 19 Este 0 -- -- 57
2018-04-19 05:00:00 13.4 15 Este 25 Este 0 -- -- 59
2018-04-19 04:00:00 13.8 10 Sur 18 Sur 0 -- -- 57
2018-04-19 03:00:00 14 12 Sur 21 Sudeste 0 -- -- 56
2018-04-19 02:00:00 14.4 11 Sudeste 29 Sudeste 0 -- -- 55
2018-04-19 01:00:00 14.5 11 Este 28 Sudeste 0 -- -- 56
2018-04-19 00:00:00 15.7 17 Sudeste 27 Sudeste 0 -- -- 49
2018-04-18 23:00:00 15.2 15 Sur 27 Sur 0 -- -- 53
2018-04-18 22:00:00 16.3 17 Sudeste 31 Sudeste 0 -- -- 51
2018-04-18 21:00:00 17.1 18 Este 38 Este 0 -- -- 48
2018-04-18 20:00:00 19 18 Este 42 Este 0 -- -- 44
2018-04-18 19:00:00 19.8 36 Este 52 Este 0 -- -- 42
2018-04-18 18:00:00 21.2 22 Este 38 Este 0 -- -- 36
2018-04-18 17:00:00 21.7 15 Este 38 Este 0 -- -- 33
2018-04-18 16:00:00 21.9 18 Nordeste 37 Nordeste 0 -- -- 42
2018-04-18 15:00:00 20.8 28 Nordeste 36 Nordeste 0 -- -- 48
2018-04-18 14:00:00 19.7 21 Nordeste 32 Nordeste 0 -- -- 49
2018-04-18 13:00:00 19.2 20 Este 27 Nordeste 0 -- -- 56
2018-04-18 12:00:00 17.8 18 Este 23 Este 0 -- -- 59
2018-04-18 11:00:00 17.9 15 Este 18 Este 0 -- -- 61
2018-04-18 10:00:00 14.4 2 Sur 10 Sudoeste 0 -- -- 69
2018-04-18 09:00:00 11.6 9 Sudoeste 13 Oeste 0 -- -- 74
2018-04-18 08:00:00 11.3 3 Sudoeste 11 Oeste 0 -- -- 73
2018-04-18 07:00:00 9.9 12 Oeste 17 Oeste 0 -- -- 81
2018-04-18 06:00:00 10.6 13 Sudoeste 15 Sudoeste 0 -- -- 80
2018-04-18 05:00:00 10.6 12 Sudoeste 15 Sudoeste 0 -- -- 81
2018-04-18 04:00:00 11.5 10 Sudoeste 15 Sudoeste 0 -- -- 76
2018-04-18 03:00:00 11.9 11 Sudoeste 15 Sudoeste 0 -- -- 73
2018-04-18 02:00:00 12.7 8 Sudoeste 10 Sudoeste 0 -- -- 69
2018-04-18 01:00:00 13.4 10 Sudoeste 13 Sudoeste 0 -- -- 66
2018-04-18 00:00:00 13.7 11 Sudoeste 15 Sur 0 -- -- 66
2018-04-17 23:00:00 14 14 Sur 18 Sur 0 -- -- 67
2018-04-17 22:00:00 15.2 6 Sudoeste -- -- 0 -- -- 59
2018-04-17 21:00:00 15.6 4 Oeste 5 Oeste 0 -- -- 58
2018-04-17 20:00:00 16.5 4 Nordeste 18 Nordeste 0 -- -- 55
2018-04-17 19:00:00 16.9 14 Nordeste 24 Nordeste 0 -- -- 55
2018-04-17 18:00:00 17.8 13 Nordeste 22 Norte 0 -- -- 55
2018-04-17 17:00:00 18.2 13 Nordeste 24 Nordeste 0 -- -- 57
2018-04-17 16:00:00 18 15 Nordeste 30 Nordeste 0 -- -- 58
2018-04-17 15:00:00 18.4 14 Nordeste 23 Nordeste 0 -- -- 54
2018-04-17 14:00:00 18.1 9 Nordeste 20 Sudoeste 0 -- -- 55
2018-04-17 13:00:00 16.9 10 Oeste 21 Oeste 0 -- -- 46
2018-04-17 12:00:00 15.6 12 Oeste 20 Oeste 0 -- -- 54
2018-04-17 11:00:00 14.2 4 Sudoeste 10 Oeste 0 -- -- 62
2018-04-17 10:00:00 11.7 6 Sudoeste 12 Sudoeste 0 -- -- 71
2018-04-17 09:00:00 8.5 11 Sudoeste 15 Sudoeste 0 -- -- 81
2018-04-17 08:00:00 7 13 Sudoeste 17 Oeste 0 -- -- 86
2018-04-17 07:00:00 6.9 13 Sudoeste 20 Oeste 0 -- -- 87
2018-04-17 06:00:00 7 14 Oeste 17 Sudoeste 0 -- -- 89
2018-04-17 05:00:00 7 17 Oeste 21 Oeste 0 -- -- 91
2018-04-17 04:00:00 6.7 14 Sudoeste 19 Sudoeste 0 -- -- 93
2018-04-17 03:00:00 7 15 Oeste 18 Oeste 0 -- -- 92
2018-04-17 02:00:00 7.2 14 Oeste 15 Oeste 0 -- -- 92
2018-04-17 01:00:00 7.4 15 Oeste 18 Oeste 0 -- -- 92
2018-04-17 00:00:00 8.4 14 Oeste 15 Oeste 0 -- -- 87
2018-04-16 23:00:00 8.9 13 Sudoeste 18 Sudoeste 0 -- -- 86
2018-04-16 22:00:00 9.4 13 Oeste 19 Oeste 0 -- -- 84
2018-04-16 21:00:00 10.5 13 Noroeste 21 Noroeste 0 -- -- 80
2018-04-16 20:00:00 12 19 Noroeste 25 Noroeste 0 -- -- 74
2018-04-16 19:00:00 11 15 Oeste 30 Oeste 0 -- -- 82
2018-04-16 18:00:00 10.4 21 Oeste 39 Noroeste 0 -- -- 84
2018-04-16 17:00:00 9.9 28 Oeste 39 Oeste 0 -- -- 84
2018-04-16 16:00:00 10 32 Oeste 48 Oeste 0 -- -- 84
2018-04-16 15:00:00 8.9 32 Oeste 49 Oeste 0 -- -- 87
2018-04-16 14:00:00 9.2 35 Oeste 48 Oeste 0 -- -- 88
2018-04-16 13:00:00 8.5 32 Oeste 44 Oeste 0 -- -- 92
2018-04-16 12:00:00 7.6 32 Noroeste 46 Noroeste 0 -- -- 93
2018-04-16 11:00:00 8 28 Oeste 41 Oeste 0.2 -- -- 95
2018-04-16 10:00:00 8 32 Oeste 42 Oeste 0.4 -- -- 94
2018-04-16 09:00:00 7.7 27 Oeste 49 Oeste 1.8 -- -- 96
2018-04-16 08:00:00 7.8 42 Oeste 48 Oeste 0.4 -- -- 94
2018-04-16 07:00:00 7.7 28 Oeste 61 Oeste 3 -- -- 95
2018-04-16 06:00:00 12.1 25 Oeste 33 Sudoeste 0.2 -- -- 80
2018-04-16 05:00:00 12.7 18 Sur 24 Sur 0 -- -- 74
2018-04-16 04:00:00 12.4 13 Sur 31 Sudoeste 0 -- -- 74
2018-04-16 03:00:00 11.9 10 Sudoeste 14 Sudoeste 0 -- -- 73
2018-04-16 02:00:00 11.9 12 Sudoeste 17 Sur 0 -- -- 77
2018-04-16 01:00:00 11.9 17 Oeste 23 Oeste 0 -- -- 82
2018-04-16 00:00:00 13.7 6 Sudoeste 11 Oeste 0 -- -- 73
2018-04-15 23:00:00 14.2 5 Sudoeste 8 Sur 0 -- -- 70
2018-04-15 22:00:00 14.3 6 Sudoeste 10 Oeste 0.4 -- -- 71
2018-04-15 21:00:00 15.2 5 Este 14 Este 0 -- -- 66
2018-04-15 20:00:00 16 13 Este 16 Este 0 -- -- 66
2018-04-15 19:00:00 16.9 7 Norte 18 Noroeste 0 -- -- 59
2018-04-15 18:00:00 17.6 12 Noroeste 29 Norte 0 -- -- 56
2018-04-15 17:00:00 17.8 19 Noroeste 29 Noroeste 0 -- -- 53
2018-04-15 16:00:00 18.1 15 Norte 36 Oeste 0 -- -- 52
2018-04-15 15:00:00 18 24 Oeste 40 Oeste 0 -- -- 50
2018-04-15 14:00:00 17.9 28 Oeste 40 Oeste 0 -- -- 51
2018-04-15 13:00:00 16.8 29 Oeste 43 Oeste 0 -- -- 54
2018-04-15 12:00:00 15.4 31 Oeste 41 Oeste 0 -- -- 57
2018-04-15 11:00:00 13.6 21 Oeste 28 Noroeste 0 -- -- 60
2018-04-15 10:00:00 11.4 18 Oeste 26 Oeste 0 -- -- 66
2018-04-15 09:00:00 8.9 24 Oeste 31 Oeste 0 -- -- 74
2018-04-15 08:00:00 7.2 19 Oeste 26 Oeste 0 -- -- 74
2018-04-15 07:00:00 5.8 24 Oeste 30 Oeste 0 -- -- 79
2018-04-15 06:00:00 6 23 Oeste 25 Oeste 0 -- -- 79
2018-04-15 05:00:00 6 19 Oeste 23 Oeste 0 -- -- 85
2018-04-15 04:00:00 6.5 18 Oeste 21 Oeste 0 -- -- 89
2018-04-15 03:00:00 6.8 14 Oeste 20 Oeste 0 -- -- 91
2018-04-15 02:00:00 7.5 10 Oeste 14 Oeste 0 -- -- 90
2018-04-15 01:00:00 8.4 11 Sudoeste 14 Sur 0 -- -- 85
2018-04-15 00:00:00 8.6 8 Sudoeste 10 Sudoeste 0 -- -- 86
2018-04-14 23:00:00 9.8 8 Sudeste 12 Sudeste 0 -- -- 81
2018-04-14 22:00:00 9.8 8 Este 9 Este 0 -- -- 82
2018-04-14 21:00:00 10.2 9 Este 13 Este 0 -- -- 80
2018-04-14 20:00:00 11.8 11 Este 16 Este 0 -- -- 69
2018-04-14 19:00:00 12.1 12 Nordeste 20 Nordeste 0 -- -- 62
2018-04-14 18:00:00 12.9 9 Nordeste 17 Nordeste 0 -- -- 59
2018-04-14 17:00:00 12.7 10 Este 21 Este 0 -- -- 61
2018-04-14 16:00:00 12.5 12 Este 26 Nordeste 0 -- -- 62
2018-04-14 15:00:00 12.8 10 Nordeste 22 Nordeste 0 -- -- 66
2018-04-14 14:00:00 10.3 13 Nordeste 20 Nordeste 0 -- -- 78
2018-04-14 13:00:00 12.1 10 Nordeste 19 Nordeste 0 -- -- 68
2018-04-14 12:00:00 10.7 5 Noroeste 12 Noroeste 0 -- -- 74
2018-04-14 11:00:00 8.1 7 Oeste 17 Oeste 0 -- -- 94
2018-04-14 10:00:00 6.2 14 Oeste 24 Oeste 0 -- -- 98
2018-04-14 09:00:00 5 16 Oeste 21 Oeste 0 -- -- 99
2018-04-14 08:00:00 4.3 15 Oeste 19 Oeste 0 -- -- 98
2018-04-14 07:00:00 4.3 10 Oeste 19 Oeste 0 -- -- 98
2018-04-14 06:00:00 4.1 9 Oeste 17 Oeste 0 -- -- 97
2018-04-14 05:00:00 4.6 9 Oeste 12 Oeste 0 -- -- 96
2018-04-14 04:00:00 4.8 0 Calma 15 Este 0 -- -- 95
2018-04-14 03:00:00 5.9 8 Norte 21 Oeste 0 -- -- 94
2018-04-14 02:00:00 5.6 18 Oeste 20 Oeste 0 -- -- 93
2018-04-14 01:00:00 6.3 9 Sur 15 Sudeste 0 -- -- 91
2018-04-14 00:00:00 7.1 11 Este 24 Este 0 -- -- 84
2018-04-13 23:00:00 7.5 19 Este 29 Este 0 -- -- 81
2018-04-13 22:00:00 7.1 12 Este 20 Este 0 -- -- 87
2018-04-13 21:00:00 7.8 11 Sur 19 Sudeste 0 -- -- 82
2018-04-13 20:00:00 8.7 13 Sudeste 32 Este 0 -- -- 75
2018-04-13 19:00:00 9.2 20 Este 35 Sudeste 0 -- -- 77
2018-04-13 18:00:00 9.6 12 Este 25 Este 0 -- -- 79
2018-04-13 17:00:00 10.6 19 Este 25 Este 1.2 -- -- 73
2018-04-13 16:00:00 9.1 24 Sudeste 38 Sudeste 1.6 -- -- 72
2018-04-13 15:00:00 12.6 14 Nordeste 26 Nordeste 0 -- -- 61
2018-04-13 14:00:00 14.1 10 Noroeste 20 Oeste 0 -- -- 55
2018-04-13 13:00:00 12.3 9 Oeste 17 Oeste 0 -- -- 55
2018-04-13 12:00:00 11.9 6 Oeste 25 Oeste 0 -- -- 57
2018-04-13 11:00:00 10 19 Oeste 30 Oeste 0 -- -- 70
2018-04-13 10:00:00 8.5 20 Oeste 30 Sudoeste 0 -- -- 78
2018-04-13 09:00:00 6.5 6 Sudoeste 8 Sudoeste 0 -- -- 92
2018-04-13 08:00:00 6.2 2 Oeste 9 Oeste 0 -- -- 89
2018-04-13 07:00:00 6.3 5 Oeste 13 Oeste 0 -- -- 90
2018-04-13 06:00:00 6.3 12 Oeste 17 Sudoeste 0.4 -- -- 90
2018-04-13 05:00:00 6.8 8 Sudoeste 18 Sudeste 0.2 -- -- 85
2018-04-13 04:00:00 7.4 10 Sudoeste 18 Sur 0 -- -- 79
2018-04-13 03:00:00 9 8 Sudoeste 20 Sudeste 0 -- -- 69
2018-04-13 02:00:00 8.2 12 Sur 17 Sudoeste 0 -- -- 78
2018-04-13 01:00:00 8.2 10 Sudoeste 14 Sudoeste 0 -- -- 76
2018-04-13 00:00:00 8.9 6 Sudoeste 10 Sur 0 -- -- 71
2018-04-12 23:00:00 9.3 7 Sudoeste 12 Sur 0 -- -- 71
2018-04-12 22:00:00 10.1 9 Este 14 Este 0 -- -- 61
2018-04-12 21:00:00 10 6 Sur 17 Sudoeste 0 -- -- 61
2018-04-12 20:00:00 12 12 Sudoeste 24 Sudoeste 0 -- -- 55
2018-04-12 19:00:00 12 18 Sudoeste 27 Sudoeste 0 -- -- 56
2018-04-12 18:00:00 13.8 18 Oeste 33 Oeste 0 -- -- 53
2018-04-12 17:00:00 13.8 22 Oeste 40 Oeste 0 -- -- 55
2018-04-12 16:00:00 13 31 Oeste 47 Sudoeste 0 -- -- 58
2018-04-12 15:00:00 11.1 39 Oeste 53 Oeste 0 -- -- 64
2018-04-12 14:00:00 11.5 42 Oeste 56 Oeste 0 -- -- 66
2018-04-12 13:00:00 9.8 36 Oeste 49 Oeste 0 -- -- 73
2018-04-12 12:00:00 8.7 39 Oeste 49 Oeste 0 -- -- 77
2018-04-12 11:00:00 7.8 39 Oeste 50 Oeste 0 -- -- 81
2018-04-12 10:00:00 6 41 Oeste 55 Oeste 0 -- -- 86
2018-04-12 09:00:00 5.1 40 Oeste 49 Oeste 0 -- -- 90
2018-04-12 08:00:00 4.4 35 Oeste 43 Oeste 0 -- -- 94
2018-04-12 07:00:00 3.9 33 Oeste 41 Oeste 0 -- -- 99
2018-04-12 06:00:00 3.1 30 Oeste 39 Oeste 0 -- -- 100
2018-04-12 05:00:00 2.7 30 Oeste 39 Oeste 0 -- -- 100
2018-04-12 04:00:00 2.6 34 Oeste 40 Oeste 0 -- -- 100
2018-04-12 03:00:00 2.8 24 Oeste 33 Oeste 0 -- -- 100
2018-04-12 02:00:00 2.4 28 Oeste 39 Oeste 0 -- -- 100
2018-04-12 01:00:00 1.8 24 Oeste 39 Oeste 0 -- -- 100
2018-04-12 00:00:00 1.6 25 Oeste 33 Oeste 0.4 -- -- 100
2018-04-11 23:00:00 1.3 26 Oeste 39 Oeste 1 -- -- 100
2018-04-11 22:00:00 2.2 27 Oeste 35 Oeste 1.4 -- -- 100
2018-04-11 21:00:00 2.3 25 Oeste 34 Noroeste 0.4 -- -- 100
2018-04-11 20:00:00 2.2 27 Oeste 44 Oeste 0.8 -- -- 100
2018-04-11 19:00:00 1.7 39 Oeste 46 Oeste 0.4 -- -- 100
2018-04-11 18:00:00 1.9 39 Oeste 50 Oeste 0.2 -- -- 100
2018-04-11 17:00:00 2.2 36 Oeste 45 Oeste 0.2 -- -- 100
2018-04-11 16:00:00 3.5 18 Oeste 33 Noroeste 0 -- -- 100
2018-04-11 15:00:00 2.6 16 Noroeste 36 Noroeste 0 -- -- 100
2018-04-11 14:00:00 2.4 28 Noroeste 39 Noroeste 0 -- -- 100
2018-04-11 13:00:00 2 30 Noroeste 54 Noroeste 0.6 -- -- 100
2018-04-11 12:00:00 0.6 29 Oeste 43 Oeste 1.8 -- -- 99
2018-04-11 11:00:00 0.4 21 Oeste 39 Oeste 1.4 -- -- 99
2018-04-11 10:00:00 0.2 25 Oeste 51 Oeste 0.4 -- -- 99
2018-04-11 09:00:00 0 29 Oeste 53 Oeste 0 -- -- 99
2018-04-11 08:00:00 -0.1 36 Oeste 48 Oeste 0 -- -- 98
2018-04-11 07:00:00 -0.1 31 Oeste 53 Oeste 0.6 -- -- 97
2018-04-11 06:00:00 2.3 44 Oeste 56 Oeste 2.6 -- -- 95
2018-04-11 05:00:00 3.8 29 Oeste 37 Oeste 0.8 -- -- 97
2018-04-11 04:00:00 4 19 Oeste 26 Oeste 0.2 -- -- 96
2018-04-11 03:00:00 4.3 15 Oeste 25 Oeste 1.2 -- -- 95
2018-04-11 02:00:00 4.3 22 Oeste 31 Oeste 4.6 -- -- 95
2018-04-11 01:00:00 5.4 9 Noroeste 14 Este 2 -- -- 95
2018-04-11 00:00:00 5.9 11 Este 31 Este 0.4 -- -- 92
2018-04-10 23:00:00 6.2 16 Este 22 Sudeste 0.2 -- -- 89
2018-04-10 22:00:00 6.7 14 Sudeste 35 Sudeste 0.2 -- -- 82
2018-04-10 21:00:00 7.2 26 Sudeste 37 Sudeste 0 -- -- 75
2018-04-10 20:00:00 7.6 12 Sudeste 34 Sudeste 0 -- -- 72
2018-04-10 19:00:00 7.9 16 Sudeste 33 Sudeste 0 -- -- 72
2018-04-10 18:00:00 8.8 12 Sudeste 35 Sur 0 -- -- 65
2018-04-10 17:00:00 9.2 27 Sur 40 Sur 0 -- -- 61
2018-04-10 16:00:00 9.5 15 Sur 41 Sur 0 -- -- 60
2018-04-10 15:00:00 9.2 20 Sur 48 Sur 0 -- -- 61
2018-04-10 14:00:00 9.4 26 Sur 45 Sur 0 -- -- 60
2018-04-10 13:00:00 9.2 14 Sur 40 Sudoeste 0 -- -- 60
2018-04-10 12:00:00 9.4 29 Sudoeste 42 Sudoeste 0 -- -- 60
2018-04-10 11:00:00 10.1 27 Sudoeste 42 Sur 0 -- -- 59
2018-04-10 10:00:00 9.5 17 Sur 23 Sur 0 -- -- 63
2018-04-10 09:00:00 7.1 5 Sudeste 13 Sudeste 0 -- -- 67
2018-04-10 08:00:00 4.1 6 Sudoeste 18 Sudeste 0 -- -- 77
2018-04-10 07:00:00 4.6 8 Sudeste 14 Sur 0 -- -- 73
2018-04-10 06:00:00 4.6 18 Oeste 33 Oeste 0 -- -- 74
2018-04-10 05:00:00 4.8 27 Oeste 35 Oeste 0 -- -- 74
2018-04-10 04:00:00 4.7 28 Oeste 40 Oeste 0 -- -- 76
2018-04-10 03:00:00 4.7 33 Oeste 43 Oeste 0.2 -- -- 78
2018-04-10 02:00:00 5.1 37 Oeste 48 Oeste 0 -- -- 76
2018-04-10 01:00:00 4.4 28 Sudoeste 35 Sudoeste 0 -- -- 73
2018-04-10 00:00:00 4.8 25 Oeste 37 Oeste 0 -- -- 70
2018-04-09 23:00:00 5.1 24 Oeste 30 Oeste 0 -- -- 69
2018-04-09 22:00:00 5.8 24 Oeste 35 Oeste 0 -- -- 68
2018-04-09 21:00:00 6.6 26 Oeste 45 Oeste 0 -- -- 66
2018-04-09 20:00:00 8.3 34 Oeste 45 Oeste 0 -- -- 61
2018-04-09 19:00:00 8 18 Sudoeste 65 Oeste 0.6 -- -- 65
2018-04-09 18:00:00 8.6 12 Nordeste 23 Oeste 0.6 -- -- 82
2018-04-09 17:00:00 9.4 13 Nordeste 22 Este 0 -- -- 72
2018-04-09 16:00:00 9.4 11 Este 17 Nordeste 0 -- -- 75
2018-04-09 15:00:00 11.7 9 Norte 25 Nordeste 0 -- -- 60
2018-04-09 14:00:00 11.4 12 Norte 24 Norte 0 -- -- 69
2018-04-09 13:00:00 10.5 11 Nordeste 28 Sudoeste 0 -- -- 74
2018-04-09 12:00:00 10.8 22 Oeste 33 Oeste 0 -- -- 56
2018-04-09 11:00:00 10.3 26 Oeste 34 Oeste 0 -- -- 61
2018-04-09 10:00:00 9.2 14 Sudoeste 24 Sudoeste 0 -- -- 66
2018-04-09 09:00:00 8.4 10 Sudoeste 18 Sudoeste 0 -- -- 68
2018-04-09 08:00:00 7.3 8 Sudoeste 17 Sudoeste 0 -- -- 73
2018-04-09 07:00:00 7 15 Sudoeste 28 Oeste 0 -- -- 76
2018-04-09 06:00:00 7.7 27 Sudoeste 39 Sudoeste 0 -- -- 69
2018-04-09 05:00:00 7.4 30 Sudoeste 44 Sudoeste 0 -- -- 72
2018-04-09 04:00:00 7.8 37 Sudoeste 45 Sudoeste 0 -- -- 71
2018-04-09 03:00:00 7.4 32 Oeste 39 Oeste 0 -- -- 75
2018-04-09 02:00:00 7.7 31 Oeste 39 Oeste 0 -- -- 74
2018-04-09 01:00:00 7.3 27 Oeste 34 Oeste 0 -- -- 78
2018-04-09 00:00:00 7.2 27 Oeste 33 Oeste 0 -- -- 80
2018-04-08 23:00:00 7.2 22 Oeste 24 Oeste 0 -- -- 86
2018-04-08 22:00:00 7.9 18 Oeste 22 Oeste 0 -- -- 85
2018-04-08 21:00:00 8.5 14 Oeste 26 Noroeste 0 -- -- 81
2018-04-08 20:00:00 10 21 Noroeste 33 Noroeste 0 -- -- 72
2018-04-08 19:00:00 10.4 26 Noroeste 36 Noroeste 0 -- -- 70
2018-04-08 18:00:00 10.2 12 Noroeste 35 Noroeste 0 -- -- 83
2018-04-08 17:00:00 8.9 23 Noroeste 47 Noroeste 0.6 -- -- 80
2018-04-08 16:00:00 8.2 32 Oeste 46 Oeste 2.4 -- -- 88
2018-04-08 15:00:00 9.2 23 Oeste 36 Oeste 0.4 -- -- 79
2018-04-08 14:00:00 11.1 26 Noroeste 44 Oeste 0 -- -- 66
2018-04-08 13:00:00 10.1 30 Oeste 44 Oeste 0 -- -- 74
2018-04-08 12:00:00 9.2 28 Oeste 36 Noroeste 0 -- -- 80
2018-04-08 11:00:00 7.9 21 Noroeste 39 Oeste 0 -- -- 85
2018-04-08 10:00:00 7.2 29 Oeste 42 Oeste 0 -- -- 87
2018-04-08 09:00:00 6.1 18 Oeste 25 Oeste 0 -- -- 91
2018-04-08 08:00:00 5.3 13 Oeste 22 Oeste 0.2 -- -- 96
2018-04-08 07:00:00 5 18 Oeste 30 Oeste 0.4 -- -- 96
2018-04-08 06:00:00 5 23 Oeste 33 Oeste 0.2 -- -- 95
2018-04-08 05:00:00 4.8 25 Oeste 42 Oeste 0 -- -- 95
2018-04-08 04:00:00 4.7 32 Oeste 54 Oeste 1 -- -- 94
2018-04-08 03:00:00 5.6 32 Oeste 44 Oeste 4.2 -- -- 93
2018-04-08 02:00:00 6.3 21 Oeste 39 Oeste 5 -- -- 96
2018-04-08 01:00:00 7.1 27 Oeste 35 Oeste 1.8 -- -- 95
2018-04-08 00:00:00 8.4 19 Oeste 28 Oeste 0.6 -- -- 93
2018-04-07 23:00:00 9.1 22 Oeste 28 Oeste 3.2 -- -- 93
2018-04-07 22:00:00 10.5 9 Sudeste 23 Este 0.4 -- -- 89
2018-04-07 21:00:00 11.1 14 Este 24 Este 0 -- -- 83
2018-04-07 20:00:00 11.5 11 Sudeste 26 Sur 0 -- -- 82
2018-04-07 19:00:00 12.1 12 Sur 31 Sur 0 -- -- 78
2018-04-07 18:00:00 12.7 20 Sur 35 Sudeste 0 -- -- 75
2018-04-07 17:00:00 13.6 15 Sudeste 37 Sudeste 0 -- -- 71
2018-04-07 16:00:00 14.3 16 Sudeste 44 Sudeste 0 -- -- 67
2018-04-07 15:00:00 14.9 19 Sudeste 42 Este 0 -- -- 65
2018-04-07 14:00:00 14.8 21 Este 33 Este 0 -- -- 65
2018-04-07 13:00:00 13.3 13 Sur 35 Sur 0 -- -- 71
2018-04-07 12:00:00 11.6 21 Sur 38 Sur 0 -- -- 76
2018-04-07 11:00:00 11.5 15 Sudeste 42 Este 0 -- -- 73
2018-04-07 10:00:00 10.7 17 Sudeste 32 Este 0 -- -- 76
2018-04-07 09:00:00 8.7 8 Este 19 Sudeste 0 -- -- 85
2018-04-07 08:00:00 7.6 17 Este 21 Este 0 -- -- 88
2018-04-07 07:00:00 7.2 12 Este 17 Este 0 -- -- 89
2018-04-07 06:00:00 7.8 9 Este 21 Este 0 -- -- 84
2018-04-07 05:00:00 7.5 16 Este 33 Sur 0 -- -- 88
2018-04-07 04:00:00 9 11 Sudeste 33 Este 0 -- -- 70
2018-04-07 03:00:00 9 19 Este 30 Este 0 -- -- 64
2018-04-07 02:00:00 9.7 20 Este 29 Este 0 -- -- 65
2018-04-07 01:00:00 12.4 17 Sudeste 43 Sudeste 0 -- -- 47
2018-04-07 00:00:00 11.6 21 Sudeste 46 Sudeste 0 -- -- 56
2018-04-06 23:00:00 11.5 21 Sudeste 49 Sudeste 0 -- -- 62
2018-04-06 22:00:00 12.6 24 Sudeste 47 Sudeste 0 -- -- 57
2018-04-06 21:00:00 13.6 22 Sudeste 40 Sudeste 0 -- -- 55
2018-04-06 20:00:00 15.3 16 Sudeste 36 Sudeste 0 -- -- 49
2018-04-06 19:00:00 16.4 18 Sudeste 44 Sudeste 0 -- -- 47
2018-04-06 18:00:00 17 22 Sur 40 Sur 0 -- -- 44
2018-04-06 17:00:00 19.3 22 Sur 45 Sur 0 -- -- 38
2018-04-06 16:00:00 19.2 22 Este 49 Este 0 -- -- 34
2018-04-06 15:00:00 20 35 Este 46 Este 0 -- -- 32
2018-04-06 14:00:00 18.6 27 Este 35 Este 0 -- -- 40
2018-04-06 13:00:00 15.7 16 Este 23 Este 0 -- -- 51
2018-04-06 12:00:00 14.9 14 Nordeste 21 Nordeste 0 -- -- 52
2018-04-06 11:00:00 12.8 12 Este 15 Este 0 -- -- 56
2018-04-06 10:00:00 13.3 5 Este 15 Este 0 -- -- 49
2018-04-06 09:00:00 11.9 10 Este 19 Sudeste 0 -- -- 43
2018-04-06 08:00:00 10.7 10 Sudeste 19 Sudeste 0 -- -- 44
2018-04-06 07:00:00 9.2 10 Este 12 Este 0 -- -- 59
2018-04-06 06:00:00 11.7 5 Sudeste 15 Sur 0 -- -- 50
2018-04-06 05:00:00 8.9 13 Oeste 22 Sudoeste 0 -- -- 64
2018-04-06 04:00:00 8 18 Sudoeste 26 Sur 0 -- -- 68
2018-04-06 03:00:00 8.7 18 Sudoeste 25 Sur 0 -- -- 66
2018-04-06 02:00:00 10.5 17 Sudoeste 23 Sur 0 -- -- 61
2018-04-06 01:00:00 10.6 20 Sur 24 Sur 0 -- -- 62
2018-04-06 00:00:00 10.8 21 Sur 24 Sur 0 -- -- 62
2018-04-05 23:00:00 12.7 13 Sur 19 Sur 0 -- -- 55
2018-04-05 22:00:00 13.8 14 Sur 20 Sur 0 -- -- 52
2018-04-05 21:00:00 14.1 12 Sudeste 27 Este 0 -- -- 51
2018-04-05 20:00:00 15.6 19 Este 31 Este 0 -- -- 51
2018-04-05 19:00:00 16.7 22 Este 33 Este 0 -- -- 47
2018-04-05 18:00:00 16.3 24 Este 36 Este 0 -- -- 47
2018-04-05 17:00:00 16.7 24 Este 33 Nordeste 0 -- -- 45
2018-04-05 16:00:00 16.9 23 Este 32 Este 0 -- -- 44
2018-04-05 15:00:00 17.4 13 Nordeste 25 Este 0 -- -- 43
2018-04-05 14:00:00 16.4 12 Este 25 Nordeste 0 -- -- 46
2018-04-05 13:00:00 14.6 7 Este 18 Este 0 -- -- 49
2018-04-05 12:00:00 13.6 9 Nordeste 18 Nordeste 0 -- -- 53
2018-04-05 11:00:00 11.8 14 Noroeste 20 Oeste 0 -- -- 56
2018-04-05 10:00:00 9.8 15 Noroeste 21 Oeste 0 -- -- 66
2018-04-05 09:00:00 7.5 10 Oeste 22 Oeste 0 -- -- 75
2018-04-05 08:00:00 6.1 14 Sudoeste 31 Oeste 0 -- -- 80
2018-04-05 07:00:00 6 22 Oeste 33 Oeste 0 -- -- 80
2018-04-05 06:00:00 6.6 24 Oeste 31 Oeste 0 -- -- 79
2018-04-05 05:00:00 7.1 26 Oeste 34 Oeste 0 -- -- 79
2018-04-05 04:00:00 7.7 28 Oeste 42 Oeste 0 -- -- 76
2018-04-05 03:00:00 8.3 36 Oeste 49 Sudoeste 0 -- -- 74
2018-04-05 02:00:00 8.6 39 Sudoeste 63 Sudoeste 0 -- -- 73
2018-04-05 01:00:00 9.1 46 Sudoeste 60 Sudoeste 0 -- -- 70
2018-04-05 00:00:00 9 48 Sudoeste 57 Sudoeste 0 -- -- 71
2018-04-04 23:00:00 8.7 44 Sudoeste 58 Sudoeste 0 -- -- 72
2018-04-04 22:00:00 9.1 49 Oeste 91 Oeste 0 -- -- 74
2018-04-04 21:00:00 11.7 32 Oeste 47 Oeste 0 -- -- 57
2018-04-04 20:00:00 12.1 36 Oeste 57 Oeste 0 -- -- 52
2018-04-04 19:00:00 12.7 36 Noroeste 58 Oeste 0 -- -- 57
2018-04-04 18:00:00 14.7 41 Sudoeste 76 Oeste 0 -- -- 45
2018-04-04 17:00:00 15.8 40 Sudoeste 61 Sudoeste 0 -- -- 39
2018-04-04 16:00:00 15.3 42 Oeste 63 Oeste 0 -- -- 41
2018-04-04 15:00:00 15 39 Oeste 68 Sudoeste 0 -- -- 40
2018-04-04 14:00:00 15.3 45 Oeste 65 Oeste 0 -- -- 39
2018-04-04 13:00:00 14.6 49 Oeste 67 Sudoeste 0 -- -- 40
2018-04-04 12:00:00 13.2 53 Sudoeste 67 Sudoeste 0 -- -- 43
2018-04-04 11:00:00 11.8 52 Sudoeste 65 Oeste 0 -- -- 46
2018-04-04 10:00:00 10.4 43 Sudoeste 60 Sudoeste 0 -- -- 54
2018-04-04 09:00:00 9.3 27 Oeste 42 Sudoeste 0 -- -- 60
2018-04-04 08:00:00 9 33 Sudoeste 59 Sudoeste 0 -- -- 61
2018-04-04 07:00:00 8.9 19 Oeste 72 Sudoeste 0 -- -- 61
2018-04-04 06:00:00 9.8 57 Sudoeste 73 Sudoeste 0 -- -- 57
2018-04-04 05:00:00 10.2 54 Sudoeste 66 Sudoeste 0 -- -- 56
2018-04-04 04:00:00 9.7 36 Sudoeste 44 Sudoeste 0 -- -- 72
2018-04-04 03:00:00 10 39 Sudoeste 59 Oeste 0 -- -- 77
2018-04-04 02:00:00 13.2 29 Sudoeste 40 Sudoeste 0 -- -- 50
2018-04-04 01:00:00 11.8 16 Sur 23 Sur 0 -- -- 49
2018-04-04 00:00:00 12.6 14 Sur 21 Sur 0 -- -- 45
2018-04-03 23:00:00 12.1 11 Sudoeste 30 Sudoeste 0 -- -- 44
2018-04-03 22:00:00 13.5 17 Sudoeste 33 Sudoeste 0 -- -- 41
2018-04-03 21:00:00 14.7 20 Sudoeste 32 Sudoeste 0 -- -- 38
2018-04-03 20:00:00 17.6 22 Sudoeste 45 Sudoeste 0 -- -- 31
2018-04-03 19:00:00 19.3 36 Sudoeste 49 Sudoeste 0 -- -- 29
2018-04-03 18:00:00 20.7 17 Sudoeste 42 Sudoeste 0 -- -- 26
2018-04-03 17:00:00 20.8 25 Sudoeste 45 Sudoeste 0 -- -- 29
2018-04-03 16:00:00 20.5 34 Sudoeste 48 Sudoeste 0 -- -- 30
2018-04-03 15:00:00 19 40 Sudoeste 53 Sudoeste 0 -- -- 34
2018-04-03 14:00:00 19 34 Sudoeste 51 Sudoeste 0 -- -- 34
2018-04-03 13:00:00 17.8 37 Sudoeste 53 Oeste 0 -- -- 39
2018-04-03 12:00:00 16.5 37 Oeste 47 Oeste 0 -- -- 43
2018-04-03 11:00:00 14 23 Sudoeste 29 Sudoeste 0 -- -- 53
2018-04-03 10:00:00 13.2 5 Sudeste 17 Sur 0 -- -- 58
2018-04-03 09:00:00 11.8 8 Sudoeste 30 Sudoeste 0 -- -- 62
2018-04-03 08:00:00 10.9 14 Sudoeste 27 Sudoeste 0 -- -- 61
2018-04-03 07:00:00 11.5 23 Sudoeste 27 Sudoeste 0 -- -- 56
2018-04-03 06:00:00 10.8 14 Oeste 19 Oeste 0 -- -- 57
2018-04-03 05:00:00 11.5 13 Sudoeste 23 Sudoeste 0 -- -- 54
2018-04-03 04:00:00 12.6 18 Sudoeste 24 Sudoeste 0 -- -- 50
2018-04-03 03:00:00 13.1 16 Sudoeste 23 Sudoeste 0 -- -- 50
2018-04-03 02:00:00 13.2 13 Sudoeste 17 Sudoeste 0 -- -- 49
2018-04-03 01:00:00 12.6 8 Sur 14 Sur 0 -- -- 52
2018-04-03 00:00:00 13.5 11 Sur 14 Sudoeste 0 -- -- 48
2018-04-02 23:00:00 11.8 9 Oeste 11 Oeste 0 -- -- 58
2018-04-02 22:00:00 12.3 7 Oeste 14 Oeste 0 -- -- 58
2018-04-02 21:00:00 13 13 Noroeste 24 Sudeste 0 -- -- 56
2018-04-02 20:00:00 15.2 15 Sur 31 Este 0 -- -- 44
2018-04-02 19:00:00 16.6 26 Este 33 Este 0 -- -- 39
2018-04-02 18:00:00 17.3 26 Este 39 Nordeste 0 -- -- 38
2018-04-02 17:00:00 19 25 Este 35 Nordeste 0 -- -- 28
2018-04-02 16:00:00 18.6 24 Este 33 Este 0 -- -- 27
2018-04-02 15:00:00 18.4 20 Este 30 Este 0 -- -- 26
2018-04-02 14:00:00 17 22 Este 30 Este 0 -- -- 26
2018-04-02 13:00:00 15.5 12 Este 22 Este 0 -- -- 27
2018-04-02 12:00:00 13.1 12 Sudeste 22 Sudeste 0 -- -- 29
2018-04-02 11:00:00 12.2 13 Sudeste 23 Sur 0 -- -- 29
2018-04-02 10:00:00 11 11 Sudeste 23 Sudeste 0 -- -- 30
2018-04-02 09:00:00 9 4 Sur 12 Sudeste 0 -- -- 37
2018-04-02 08:00:00 8.8 3 Este 14 Este 0 -- -- 38
2018-04-02 07:00:00 10 4 Este 23 Sudeste 0 -- -- 38
2018-04-02 06:00:00 10.4 10 Sudeste 19 Sudeste 0 -- -- 41
2018-04-02 05:00:00 10.1 10 Sudeste 23 Sur 0 -- -- 47
2018-04-02 04:00:00 9.9 9 Sur 17 Sur 0 -- -- 51
2018-04-02 03:00:00 10.2 16 Sur 25 Sur 0 -- -- 51
2018-04-02 02:00:00 9.1 15 Sur 24 Sur 0 -- -- 55
2018-04-02 01:00:00 10.8 22 Sur 28 Sur 0 -- -- 53
2018-04-02 00:00:00 10.6 14 Sur 18 Sur 0 -- -- 54
2018-04-01 23:00:00 11.1 3 Sudoeste 18 Sur 0 -- -- 52
2018-04-01 22:00:00 11.9 9 Sudeste 22 Este 0 -- -- 50
2018-04-01 21:00:00 12.8 13 Sudeste 23 Este 0 -- -- 50
2018-04-01 20:00:00 14.1 21 Este 33 Este 0 -- -- 44
2018-04-01 19:00:00 15.2 29 Este 37 Este 0 -- -- 40
2018-04-01 18:00:00 15.7 27 Este 36 Este 0 -- -- 38
2018-04-01 17:00:00 16.6 23 Este 34 Este 0 -- -- 37
2018-04-01 16:00:00 16.5 21 Este 33 Este 0 -- -- 36
2018-04-01 15:00:00 15.8 21 Este 31 Este 0 -- -- 37
2018-04-01 14:00:00 17.1 10 Este 25 Nordeste 0 -- -- 34
2018-04-01 13:00:00 15.5 9 Noroeste 22 Oeste 0 -- -- 38
2018-04-01 12:00:00 13.1 14 Oeste 27 Oeste 0 -- -- 41
2018-04-01 11:00:00 11.5 13 Oeste 26 Sudoeste 0 -- -- 44
2018-04-01 10:00:00 8.6 12 Sudoeste 21 Sudoeste 0 -- -- 50
2018-04-01 09:00:00 4.7 12 Oeste 22 Oeste 0 -- -- 61
2018-04-01 08:00:00 3 19 Oeste 24 Oeste 0 -- -- 65
2018-04-01 07:00:00 2.6 19 Oeste 23 Oeste 0 -- -- 66
2018-04-01 06:00:00 2.4 16 Oeste 20 Oeste 0 -- -- 68
2018-04-01 05:00:00 2 16 Oeste 18 Oeste 0 -- -- 72
2018-04-01 04:00:00 2.9 13 Oeste 15 Oeste 0 -- -- 69
2018-04-01 03:00:00 3 14 Oeste 15 Oeste 0 -- -- 68
2018-04-01 02:00:00 3.5 13 Oeste 15 Oeste 0 -- -- 66
2018-04-01 01:00:00 4.1 13 Oeste 16 Oeste 0 -- -- 64
2018-04-01 00:00:00 4.9 13 Oeste 20 Oeste 0 -- -- 60
2018-03-31 23:00:00 6.1 17 Oeste 27 Oeste 0 -- -- 56
2018-03-31 22:00:00 6.6 18 Oeste 26 Oeste 0 -- -- 53
2018-03-31 21:00:00 7.3 18 Norte 42 Norte 0 -- -- 53
2018-03-31 20:00:00 9.7 25 Noroeste 36 Noroeste 0 -- -- 37
2018-03-31 19:00:00 10.3 29 Noroeste 56 Noroeste 0 -- -- 36
2018-03-31 18:00:00 11.9 35 Noroeste 66 Noroeste 0 -- -- 32
2018-03-31 17:00:00 11.9 54 Noroeste 77 Oeste 0 -- -- 29
2018-03-31 16:00:00 12.5 51 Oeste 73 Oeste 0 -- -- 28
2018-03-31 15:00:00 11.9 51 Oeste 87 Oeste 0 -- -- 32
2018-03-31 14:00:00 10.6 53 Oeste 79 Oeste 0 -- -- 38
2018-03-31 13:00:00 9.3 59 Oeste 82 Oeste 0 -- -- 37
2018-03-31 12:00:00 8.2 59 Noroeste 86 Noroeste 0 -- -- 44
2018-03-31 11:00:00 7.5 67 Oeste 95 Oeste 0 -- -- 51
2018-03-31 10:00:00 6.7 52 Oeste 81 Oeste 0 -- -- 54
2018-03-31 09:00:00 5.3 62 Oeste 83 Oeste 0 -- -- 58
2018-03-31 08:00:00 5 61 Oeste 93 Oeste 0 -- -- 58
2018-03-31 07:00:00 4.9 71 Oeste 91 Oeste 0 -- -- 58
2018-03-31 06:00:00 4.7 66 Oeste 88 Oeste 0 -- -- 60
2018-03-31 05:00:00 4.1 59 Oeste 75 Oeste 0 -- -- 63
2018-03-31 04:00:00 4.5 35 Oeste 66 Oeste 0 -- -- 68
2018-03-31 03:00:00 4.7 60 Oeste 82 Oeste 0 -- -- 71
2018-03-31 02:00:00 6.5 30 Oeste 48 Sudoeste 0 -- -- 54
2018-03-31 01:00:00 6.7 32 Sudoeste 48 Sudoeste 0 -- -- 47
2018-03-31 00:00:00 6.9 31 Oeste 57 Oeste 0 -- -- 41
2018-03-30 23:00:00 7.4 36 Oeste 48 Sudoeste 0 -- -- 37
2018-03-30 22:00:00 7.6 33 Sudoeste 45 Sudoeste 0 -- -- 37
2018-03-30 21:00:00 8.8 33 Sudoeste 45 Oeste 0 -- -- 34
2018-03-30 20:00:00 10.7 35 Oeste 51 Oeste 0 -- -- 34
2018-03-30 19:00:00 12.5 40 Oeste 51 Oeste 0 -- -- 27
2018-03-30 18:00:00 13.8 29 Oeste 51 Oeste 0 -- -- 29
2018-03-30 17:00:00 12.9 39 Oeste 57 Oeste 0 -- -- 30
2018-03-30 16:00:00 12.8 34 Oeste 54 Oeste 0 -- -- 30
2018-03-30 15:00:00 11.8 33 Oeste 47 Oeste 0 -- -- 36
2018-03-30 14:00:00 11.3 27 Oeste 36 Oeste 0 -- -- 43
2018-03-30 13:00:00 9.2 18 Oeste 28 Oeste 0 -- -- 51
2018-03-30 12:00:00 7.9 20 Oeste 39 Oeste 0 -- -- 61
2018-03-30 11:00:00 5 32 Oeste 48 Oeste 0 -- -- 74
2018-03-30 10:00:00 6.3 14 Norte 32 Oeste 0 -- -- 69
2018-03-30 09:00:00 7.4 23 Oeste 35 Sudoeste 0 -- -- 58
2018-03-30 08:00:00 6.4 30 Sudoeste 51 Sudoeste 0 -- -- 58
2018-03-30 07:00:00 6.8 40 Sudoeste 49 Sudoeste 0 -- -- 56
2018-03-30 06:00:00 6.7 22 Sudoeste 36 Sudoeste 0 -- -- 56
2018-03-30 05:00:00 6.4 22 Sudoeste 31 Sudoeste 0 -- -- 59
2018-03-30 04:00:00 7.1 22 Sudoeste 29 Oeste 0 -- -- 59
2018-03-30 03:00:00 8.2 24 Sudoeste 38 Sudoeste 0 -- -- 54
2018-03-30 02:00:00 8.9 12 Sudoeste 22 Sudoeste 0 -- -- 53
2018-03-30 01:00:00 9.4 9 Sudoeste 21 Sudoeste 0 -- -- 50
2018-03-30 00:00:00 8.8 17 Oeste 27 Sudoeste 0 -- -- 64
2018-03-29 23:00:00 9.7 10 Sudoeste 15 Sudoeste 0 -- -- 68
2018-03-29 22:00:00 11.1 6 Sudoeste 8 Este 0 -- -- 66
2018-03-29 21:00:00 11.8 7 Este 17 Este 0 -- -- 66
2018-03-29 20:00:00 12.8 17 Este 31 Este 0 -- -- 55
2018-03-29 19:00:00 14.3 20 Este 33 Nordeste 0 -- -- 49
2018-03-29 18:00:00 14.8 21 Este 33 Este 0 -- -- 48
2018-03-29 17:00:00 15.4 14 Nordeste 28 Sudeste 0 -- -- 47
2018-03-29 16:00:00 14.8 15 Nordeste 28 Nordeste 0 -- -- 49
2018-03-29 15:00:00 14.9 15 Nordeste 35 Este 0 -- -- 49
2018-03-29 14:00:00 14 19 Este 26 Nordeste 0 -- -- 53
2018-03-29 13:00:00 15.1 9 Nordeste 24 Noroeste 0 -- -- 49
2018-03-29 12:00:00 13.3 9 Oeste 28 Oeste 0 -- -- 54
2018-03-29 11:00:00 11.5 16 Oeste 26 Oeste 0 -- -- 59
2018-03-29 10:00:00 9.9 6 Sudoeste 10 Sudoeste 0 -- -- 74
2018-03-29 09:00:00 7 4 Oeste 14 Oeste 0 -- -- 84
2018-03-29 08:00:00 6.6 15 Oeste 22 Oeste 0 -- -- 85
2018-03-29 07:00:00 6.5 22 Oeste 27 Oeste 0 -- -- 85
2018-03-29 06:00:00 6.3 21 Oeste 24 Sudoeste 0 -- -- 85
2018-03-29 05:00:00 7 20 Oeste 27 Oeste 0 -- -- 85
2018-03-29 04:00:00 7.5 23 Oeste 37 Oeste 0 -- -- 80
2018-03-29 03:00:00 9.5 25 Oeste 43 Noroeste 0 -- -- 73
2018-03-29 02:00:00 12.2 29 Noroeste 40 Noroeste 0 -- -- 48
2018-03-29 01:00:00 12 24 Oeste 33 Oeste 0 -- -- 45
2018-03-29 00:00:00 12.9 24 Oeste 31 Oeste 0 -- -- 38
2018-03-28 23:00:00 14.3 18 Oeste 22 Oeste 0 -- -- 33
2018-03-28 22:00:00 16.1 10 Oeste 13 Oeste 0 -- -- 29
2018-03-28 21:00:00 17.4 5 Noroeste 14 Norte 0 -- -- 27
2018-03-28 20:00:00 19.3 7 Nordeste 46 Oeste 0 -- -- 27
2018-03-28 19:00:00 21.8 37 Oeste 48 Oeste 0 -- -- 19
2018-03-28 18:00:00 22.8 33 Oeste 48 Oeste 0 -- -- 18
2018-03-28 17:00:00 23.3 26 Oeste 48 Oeste 0 -- -- 18
2018-03-28 16:00:00 23.1 24 Oeste 37 Oeste 0 -- -- 19
2018-03-28 15:00:00 22 13 Noroeste 46 Noroeste 0 -- -- 23
2018-03-28 14:00:00 20.6 23 Oeste 52 Oeste 0 -- -- 25
2018-03-28 13:00:00 18.7 36 Oeste 47 Oeste 0 -- -- 27
2018-03-28 12:00:00 17.2 39 Oeste 55 Oeste 0 -- -- 30
2018-03-28 11:00:00 15.4 29 Oeste 41 Oeste 0 -- -- 38
2018-03-28 10:00:00 13.1 19 Oeste 36 Oeste 0 -- -- 47
2018-03-28 09:00:00 10.6 28 Oeste 33 Oeste 0 -- -- 57
2018-03-28 08:00:00 8.7 26 Sudoeste 30 Oeste 0 -- -- 67
2018-03-28 07:00:00 9.1 26 Oeste 32 Oeste 0 -- -- 66
2018-03-28 06:00:00 8.3 26 Oeste 29 Oeste 0 -- -- 72
2018-03-28 05:00:00 8.4 13 Oeste 21 Oeste 0 -- -- 74
2018-03-28 04:00:00 8.9 19 Oeste 21 Oeste 0 -- -- 72
2018-03-28 03:00:00 8.5 14 Oeste 21 Oeste 0 -- -- 75
2018-03-28 02:00:00 9.9 21 Oeste 26 Oeste 0 -- -- 74
2018-03-28 01:00:00 9.9 22 Oeste 35 Oeste 0 -- -- 79
2018-03-28 00:00:00 11.1 30 Oeste 37 Oeste 0 -- -- 75
2018-03-27 23:00:00 11.4 27 Oeste 33 Oeste 0 -- -- 73
2018-03-27 22:00:00 12.4 26 Noroeste 39 Noroeste 0 -- -- 68
2018-03-27 21:00:00 12.8 27 Noroeste 44 Noroeste 0 -- -- 67
2018-03-27 20:00:00 14.4 35 Noroeste 44 Noroeste 0 -- -- 60
2018-03-27 19:00:00 15.9 34 Noroeste 49 Noroeste 0 -- -- 54
2018-03-27 18:00:00 17.3 37 Noroeste 54 Noroeste 0 -- -- 48
2018-03-27 17:00:00 17.3 41 Noroeste 62 Noroeste 0 -- -- 46
2018-03-27 16:00:00 16.7 53 Noroeste 64 Noroeste 0 -- -- 46
2018-03-27 15:00:00 16.2 52 Noroeste 67 Noroeste 0 -- -- 49
2018-03-27 14:00:00 15.2 45 Noroeste 64 Noroeste 0 -- -- 50
2018-03-27 13:00:00 13.9 49 Noroeste 67 Noroeste 0 -- -- 53
2018-03-27 12:00:00 12.9 47 Noroeste 70 Noroeste 0 -- -- 55
2018-03-27 11:00:00 11.7 49 Oeste 65 Oeste 0 -- -- 59
2018-03-27 10:00:00 9.6 48 Oeste 57 Oeste 0 -- -- 65
2018-03-27 09:00:00 8.3 31 Oeste 50 Oeste 0 -- -- 71
2018-03-27 08:00:00 8 31 Noroeste 51 Noroeste 0 -- -- 73
2018-03-27 07:00:00 6.4 30 Oeste 39 Noroeste 0 -- -- 69
2018-03-27 06:00:00 6.1 30 Oeste 37 Oeste 0 -- -- 70
2018-03-27 05:00:00 5.5 35 Oeste 44 Oeste 0 -- -- 72
2018-03-27 04:00:00 4.3 32 Oeste 42 Oeste 0 -- -- 79
2018-03-27 03:00:00 4.3 33 Oeste 55 Oeste 0 -- -- 80
2018-03-27 02:00:00 4.9 41 Oeste 51 Oeste 0 -- -- 76
2018-03-27 01:00:00 5.3 36 Oeste 61 Oeste 0 -- -- 71
2018-03-27 00:00:00 5.6 39 Noroeste 59 Oeste 0 -- -- 71
2018-03-26 23:00:00 5.9 41 Noroeste 60 Noroeste 0 -- -- 71
2018-03-26 22:00:00 6.3 47 Noroeste 61 Oeste 0 -- -- 68
2018-03-26 21:00:00 6.9 43 Noroeste 62 Noroeste 0 -- -- 64
2018-03-26 20:00:00 8.6 46 Noroeste 66 Noroeste 0 -- -- 54
2018-03-26 19:00:00 9.4 43 Noroeste 68 Noroeste 0 -- -- 50
2018-03-26 18:00:00 10.4 44 Noroeste 67 Noroeste 0 -- -- 46
2018-03-26 17:00:00 11.4 36 Noroeste 62 Noroeste 0 -- -- 46
2018-03-26 16:00:00 10.5 36 Noroeste 65 Noroeste 0 -- -- 50
2018-03-26 15:00:00 10.8 45 Noroeste 64 Noroeste 0 -- -- 51
2018-03-26 14:00:00 9.3 42 Noroeste 60 Noroeste 0 -- -- 56
2018-03-26 13:00:00 8.3 43 Noroeste 66 Oeste 0 -- -- 61
2018-03-26 12:00:00 8.6 40 Noroeste 70 Noroeste 0 -- -- 64
2018-03-26 11:00:00 8.4 47 Noroeste 72 Noroeste 0 -- -- 64
2018-03-26 10:00:00 7.6 45 Noroeste 66 Noroeste 0 -- -- 67
2018-03-26 09:00:00 6.1 40 Noroeste 54 Noroeste 0 -- -- 73
2018-03-26 08:00:00 5.2 36 Oeste 55 Noroeste 0 -- -- 75
2018-03-26 07:00:00 4.7 30 Oeste 54 Oeste 0 -- -- 77
2018-03-26 06:00:00 4.9 28 Oeste 47 Noroeste 0 -- -- 76
2018-03-26 05:00:00 4.9 31 Oeste 44 Oeste 0 -- -- 75
2018-03-26 04:00:00 4.7 35 Oeste 52 Noroeste 0 -- -- 75
2018-03-26 03:00:00 4.4 31 Oeste 48 Oeste 0 -- -- 77
2018-03-26 02:00:00 4.4 35 Oeste 53 Noroeste 0 -- -- 74
2018-03-26 01:00:00 4.7 40 Noroeste 61 Noroeste 0 -- -- 75
2018-03-26 00:00:00 4.9 38 Noroeste 51 Noroeste 0 -- -- 78
2018-03-25 23:00:00 5.3 34 Noroeste 46 Noroeste 0 -- -- 74
2018-03-25 22:00:00 6.1 32 Noroeste 46 Noroeste 0 -- -- 72
2018-03-25 21:00:00 6.4 28 Noroeste 37 Noroeste 0 -- -- 67
2018-03-25 20:00:00 7.5 25 Noroeste 37 Noroeste 0 -- -- 58
2018-03-25 19:00:00 8.9 28 Noroeste 40 Noroeste 0 -- -- 54
2018-03-25 18:00:00 8.9 23 Norte 37 Noroeste 0 -- -- 56
2018-03-25 17:00:00 8.6 22 Norte 39 Noroeste 0 -- -- 58
2018-03-25 16:00:00 9 25 Noroeste 37 Noroeste 0 -- -- 57
2018-03-25 15:00:00 8.8 26 Noroeste 36 Norte 0 -- -- 53
2018-03-25 14:00:00 9.5 20 Norte 41 Norte 0 -- -- 51
2018-03-25 13:00:00 8.6 22 Noroeste 37 Noroeste 0 -- -- 54
2018-03-25 12:00:00 7.8 28 Noroeste 41 Oeste 0 -- -- 58
2018-03-25 11:00:00 6.9 32 Oeste 44 Oeste 0 -- -- 61
2018-03-25 10:00:00 4.4 31 Oeste 46 Oeste 0 -- -- 70
2018-03-25 09:00:00 4.3 29 Oeste 36 Oeste 0 -- -- 72
2018-03-25 08:00:00 3.9 27 Oeste 38 Oeste 0 -- -- 74
2018-03-25 07:00:00 4 35 Oeste 49 Oeste 0 -- -- 73
2018-03-25 06:00:00 4.3 40 Oeste 55 Oeste 0 -- -- 72
2018-03-25 05:00:00 4 37 Oeste 47 Oeste 0 -- -- 73
2018-03-25 03:00:00 3.3 35 Oeste 45 Oeste 0 -- -- 81
2018-03-25 01:00:00 3.4 24 Oeste 34 Oeste 0 -- -- 78
2018-03-25 00:00:00 4.7 27 Noroeste 45 Noroeste 0 -- -- 70
2018-03-24 23:00:00 5.4 28 Oeste 46 Noroeste 0 -- -- 69
2018-03-24 22:00:00 6.1 34 Noroeste 49 Noroeste 0 -- -- 68
2018-03-24 21:00:00 6.7 34 Noroeste 46 Oeste 0 -- -- 64
2018-03-24 20:00:00 7.2 26 Noroeste 47 Oeste 0 -- -- 61
2018-03-24 19:00:00 8.6 31 Noroeste 43 Noroeste 0 -- -- 55
2018-03-24 18:00:00 9.1 28 Noroeste 49 Noroeste 0 -- -- 54
2018-03-24 17:00:00 9.6 37 Noroeste 57 Noroeste 0 -- -- 48
2018-03-24 16:00:00 9 44 Oeste 71 Oeste 0 -- -- 50
2018-03-24 15:00:00 9 51 Oeste 77 Oeste 0 -- -- 50
2018-03-24 14:00:00 9.1 51 Oeste 75 Oeste 0 -- -- 49
2018-03-24 13:00:00 8.5 54 Oeste 69 Oeste 0 -- -- 51
2018-03-24 12:00:00 7.7 52 Oeste 73 Oeste 0 -- -- 53
2018-03-24 11:00:00 6.3 58 Oeste 71 Oeste 0 -- -- 59
2018-03-24 10:00:00 4.9 54 Oeste 69 Oeste 0 -- -- 65
2018-03-24 09:00:00 3.6 42 Oeste 63 Oeste 0 -- -- 73
2018-03-24 08:00:00 2.3 50 Oeste 63 Oeste 0 -- -- 81
2018-03-24 07:00:00 2.2 33 Oeste 50 Oeste 0 -- -- 89
2018-03-24 06:00:00 2.5 43 Oeste 72 Oeste 0 -- -- 90
2018-03-24 05:00:00 4.1 54 Oeste 87 Oeste 0 -- -- 82
2018-03-24 04:00:00 5.3 59 Oeste 77 Oeste 0.6 -- -- 80
2018-03-24 03:00:00 8.5 18 Sudoeste 23 Sudoeste 0.2 -- -- 82
2018-03-24 02:00:00 8.6 10 Sudoeste 15 Sur 0.4 -- -- 81
2018-03-24 01:00:00 8.8 9 Sur 17 Sur 0 -- -- 78
2018-03-24 00:00:00 9 16 Sur 22 Sudoeste 0 -- -- 76
2018-03-23 23:00:00 9.5 20 Sudoeste 33 Sudoeste 0 -- -- 75
2018-03-23 22:00:00 9.7 30 Sudoeste 49 Sudoeste 0 -- -- 75
2018-03-23 21:00:00 11.1 40 Oeste 51 Oeste 0 -- -- 63
2018-03-23 20:00:00 11.8 26 Oeste 34 Oeste 0 -- -- 55
2018-03-23 19:00:00 12.2 9 Oeste 30 Noroeste 0 -- -- 55
2018-03-23 18:00:00 12.9 27 Noroeste 48 Oeste 0 -- -- 54
2018-03-23 17:00:00 14.3 39 Oeste 50 Noroeste 0 -- -- 49
2018-03-23 16:00:00 15.7 36 Oeste 49 Oeste 0 -- -- 42
2018-03-23 15:00:00 15.4 36 Oeste 54 Oeste 0 -- -- 42
2018-03-23 14:00:00 15.3 39 Oeste 57 Oeste 0 -- -- 41
2018-03-23 13:00:00 12.4 46 Oeste 57 Oeste 0 -- -- 44
2018-03-23 12:00:00 11.7 44 Oeste 56 Oeste 0 -- -- 42
2018-03-23 11:00:00 10.6 43 Oeste 56 Oeste 0 -- -- 40
2018-03-23 10:00:00 8 46 Oeste 69 Oeste 0 -- -- 42
2018-03-23 09:00:00 7.2 33 Oeste 49 Oeste 0 -- -- 46
2018-03-23 08:00:00 4.5 40 Oeste 48 Oeste 0 -- -- 52
2018-03-23 07:00:00 3.2 32 Oeste 45 Oeste 0 -- -- 51
2018-03-23 06:00:00 2.2 35 Oeste 47 Oeste 0 -- -- 51
2018-03-23 05:00:00 3 37 Oeste 46 Oeste 0 -- -- 49
2018-03-23 04:00:00 2.9 25 Oeste 37 Oeste 0 -- -- 51
2018-03-23 03:00:00 1.8 31 Oeste 40 Oeste 0 -- -- 61
2018-03-23 02:00:00 2 36 Oeste 47 Oeste 0 -- -- 64
2018-03-23 01:00:00 2.5 41 Oeste 47 Oeste 0 -- -- 64
2018-03-23 00:00:00 3.1 28 Oeste 39 Oeste 0 -- -- 62
2018-03-22 23:00:00 3.4 33 Oeste 42 Noroeste 0 -- -- 61
2018-03-22 22:00:00 4.2 26 Oeste 42 Noroeste 0 -- -- 57
2018-03-22 21:00:00 4.5 22 Oeste 42 Noroeste 0 -- -- 53
2018-03-22 20:00:00 5.5 32 Noroeste 62 Noroeste 0 -- -- 49
2018-03-22 19:00:00 7.1 32 Noroeste 56 Noroeste 0 -- -- 43
2018-03-22 18:00:00 9.3 36 Noroeste 57 Noroeste 0 -- -- 37
2018-03-22 17:00:00 9.2 38 Noroeste 59 Oeste 0 -- -- 39
2018-03-22 16:00:00 10.2 40 Oeste 65 Oeste 0 -- -- 36
2018-03-22 15:00:00 8.8 50 Oeste 64 Oeste 0 -- -- 41
2018-03-22 14:00:00 8.5 34 Noroeste 53 Noroeste 0 -- -- 43
2018-03-22 13:00:00 7.5 38 Noroeste 58 Noroeste 0 -- -- 47
2018-03-22 12:00:00 6.3 37 Noroeste 61 Noroeste 0 -- -- 48
2018-03-22 11:00:00 4.8 41 Noroeste 65 Noroeste 0 -- -- 54
2018-03-22 10:00:00 3.1 44 Noroeste 66 Noroeste 0 -- -- 61
2018-03-22 09:00:00 1.4 51 Noroeste 68 Noroeste 0 -- -- 68
2018-03-22 08:00:00 0.1 46 Noroeste 64 Noroeste 0 -- -- 74
2018-03-22 07:00:00 -0.6 45 Noroeste 62 Noroeste 0 -- -- 74
2018-03-22 06:00:00 -0.6 46 Noroeste 64 Noroeste 0 -- -- 72
2018-03-22 05:00:00 -0.9 34 Oeste 63 Noroeste 0 -- -- 73
2018-03-22 04:00:00 -0.7 48 Noroeste 75 Noroeste 0 -- -- 68
2018-03-22 03:00:00 -0.6 51 Noroeste 70 Noroeste 0 -- -- 67
2018-03-22 02:00:00 -0.6 41 Noroeste 71 Noroeste 0 -- -- 66
2018-03-22 01:00:00 -0.4 49 Noroeste 72 Noroeste 0 -- -- 64
2018-03-22 00:00:00 -0.3 46 Noroeste 67 Oeste 0 -- -- 62